Time;durP1;ratioP1;P1;durP2;ratioP2;P2;SDS_P1;SDS_P2;PMS_P1;PMS_P2;Temp;Humidity;BMP_temperature;BMP_pressure;BME280_temperature;BME280_humidity;BME280_pressure;Samples;Min_cycle;Max_cycle;Signal;HPM_P1;HPM_P2
2022/10/10 00:02:23;;;;;;;7.65;7.05;;;;;;;-141.48;100.00;69781.59;5241301;28;20056;-83
2022/10/10 00:04:54;;;;;;;7.20;6.55;;;;;;;-141.48;100.00;69781.59;5244681;28;20081;-83
2022/10/10 00:07:24;;;;;;;6.68;6.28;;;;;;;-141.48;100.00;69781.59;5243679;28;20028;-82
2022/10/10 00:09:54;;;;;;;8.25;7.43;;;;;;;-141.48;100.00;69781.59;5238051;28;20024;-83
2022/10/10 00:12:25;;;;;;;7.60;7.10;;;;;;;-141.48;100.00;69781.59;5237053;28;20432;-83
2022/10/10 00:14:55;;;;;;;10.40;7.90;;;;;;;-141.48;100.00;69781.59;5236446;28;20105;-84
2022/10/10 00:17:25;;;;;;;13.30;8.77;;;;;;;-141.48;100.00;69781.59;5233288;28;20063;-84
2022/10/10 00:19:56;;;;;;;6.97;6.55;;;;;;;-141.48;100.00;69781.59;5234471;28;20028;-83
2022/10/10 00:22:26;;;;;;;8.13;7.55;;;;;;;-141.48;100.00;69781.59;5233219;28;20029;-84
2022/10/10 00:24:57;;;;;;;7.38;6.97;;;;;;;-141.48;100.00;69781.59;5243356;28;20045;-84
2022/10/10 00:27:27;;;;;;;7.45;6.95;;;;;;;-141.48;100.00;69781.59;5245401;28;20021;-84
2022/10/10 00:29:58;;;;;;;10.77;7.63;;;;;;;-141.48;100.00;69781.59;5243867;28;20140;-84
2022/10/10 00:32:28;;;;;;;7.82;7.22;;;;;;;-141.48;100.00;69781.59;5248580;28;20088;-84
2022/10/10 00:34:58;;;;;;;9.35;7.32;;;;;;;-141.48;100.00;69781.59;5247475;28;20039;-83
2022/10/10 00:37:29;;;;;;;7.85;7.35;;;;;;;-141.48;100.00;69781.59;5248974;28;20035;-84
2022/10/10 00:39:59;;;;;;;7.22;6.93;;;;;;;-141.48;100.00;69781.59;5237267;28;20025;-83
2022/10/10 00:42:30;;;;;;;7.78;6.45;;;;;;;-141.48;100.00;69781.59;5236735;28;20053;-84
2022/10/10 00:45:22;;;;;;;8.88;8.00;;;;;;;-141.48;100.00;69781.59;5234809;28;20025;-83
2022/10/10 00:48:03;;;;;;;7.07;6.38;;;;;;;-141.48;100.00;69781.59;5237538;28;20029;-84
2022/10/10 00:50:39;;;;;;;6.88;6.45;;;;;;;-141.48;100.00;69781.59;5236184;28;20070;-84
2022/10/10 00:53:12;;;;;;;9.07;7.55;;;;;;;-141.48;100.00;69781.59;5237253;28;20029;-83
2022/10/10 00:55:43;;;;;;;8.82;8.13;;;;;;;-141.48;100.00;69781.59;5244582;28;20021;-82
2022/10/10 00:58:15;;;;;;;7.50;6.90;;;;;;;-141.48;100.00;69781.59;5247941;28;20021;-83
2022/10/10 01:00:46;;;;;;;7.65;6.95;;;;;;;-141.48;100.00;69781.59;5237108;28;20021;-83
2022/10/10 01:03:16;;;;;;;8.65;8.13;;;;;;;-141.48;100.00;69781.59;5234966;28;20533;-83
2022/10/10 01:05:48;;;;;;;16.17;7.43;;;;;;;-141.48;100.00;69781.59;5236668;28;20071;-84
2022/10/10 01:08:20;;;;;;;8.23;7.80;;;;;;;-141.48;100.00;69781.59;5237115;28;20031;-84
2022/10/10 01:11:17;;;;;;;8.88;8.10;;;;;;;-141.48;100.00;69781.59;5234689;28;20021;-83
2022/10/10 01:13:58;;;;;;;8.75;7.45;;;;;;;-141.48;100.00;69781.59;5229690;28;20048;-83
2022/10/10 01:16:34;;;;;;;7.90;7.50;;;;;;;-141.48;100.00;69781.59;5236409;28;20044;-82
2022/10/10 01:19:11;;;;;;;9.50;8.68;;;;;;;-141.48;100.00;69781.59;5236519;28;20032;-83
2022/10/10 01:21:41;;;;;;;9.50;8.02;;;;;;;-141.48;100.00;69781.59;5235034;28;20017;-82
2022/10/10 01:24:24;;;;;;;7.43;7.03;;;;;;;-141.48;100.00;69781.59;5235725;28;20054;-82
2022/10/10 01:27:00;;;;;;;8.93;8.25;;;;;;;-141.48;100.00;69781.59;5237137;28;20028;-84
2022/10/10 01:29:46;;;;;;;14.32;8.68;;;;;;;-141.48;100.00;69781.59;5236486;28;20032;-83
2022/10/10 01:32:30;;;;;;;8.75;7.78;;;;;;;-141.48;100.00;69781.59;5235490;28;20028;-84
2022/10/10 01:35:22;;;;;;;10.05;7.20;;;;;;;-141.48;100.00;69781.59;5234263;28;20035;-83
2022/10/10 01:38:27;;;;;;;7.55;7.05;;;;;;;-141.48;100.00;69781.59;5235360;28;20040;-83
2022/10/10 01:40:57;;;;;;;9.10;8.43;;;;;;;-141.48;100.00;69781.59;5233610;28;20029;-83
2022/10/10 01:43:29;;;;;;;12.57;8.60;;;;;;;-141.48;100.00;69781.59;5235503;28;20035;-81
2022/10/10 01:46:12;;;;;;;10.68;8.13;;;;;;;-141.48;100.00;69781.59;5236037;28;20024;-83
2022/10/10 01:48:46;;;;;;;9.05;8.55;;;;;;;-141.48;100.00;69781.59;5236070;28;20025;-82
2022/10/10 01:51:25;;;;;;;8.77;7.95;;;;;;;-141.48;100.00;69781.59;5235599;28;20025;-83
2022/10/10 01:54:11;;;;;;;9.20;8.48;;;;;;;-141.48;100.00;69781.59;5235586;28;20084;-84
2022/10/10 01:56:57;;;;;;;8.82;8.05;;;;;;;-141.48;100.00;69781.59;5234742;28;20029;-83
2022/10/10 02:00:07;;;;;;;8.35;7.70;;;;;;;-141.48;100.00;69781.59;5235033;28;20400;-83
2022/10/10 02:02:40;;;;;;;8.63;7.97;;;;;;;-141.48;100.00;69781.59;5233771;28;20041;-83
2022/10/10 02:05:26;;;;;;;7.32;6.72;;;;;;;-141.48;100.00;69781.59;5233138;28;20036;-84
2022/10/10 02:08:06;;;;;;;8.98;8.48;;;;;;;-141.48;100.00;69781.59;5234429;28;20037;-83
2022/10/10 02:10:45;;;;;;;9.98;9.10;;;;;;;-141.48;100.00;69781.59;5234469;28;20021;-83
2022/10/10 02:13:17;;;;;;;8.02;7.40;;;;;;;-141.48;100.00;69781.59;5233795;28;20060;-83
2022/10/10 02:15:52;;;;;;;8.68;7.82;;;;;;;-141.48;100.00;69781.59;5233780;28;20021;-83
2022/10/10 02:18:26;;;;;;;8.30;7.60;;;;;;;-141.48;100.00;69781.59;5234169;28;20031;-83
2022/10/10 02:20:57;;;;;;;9.35;8.35;;;;;;;-141.48;100.00;69781.59;5236009;28;20479;-83
2022/10/10 02:23:28;;;;;;;8.02;7.43;;;;;;;-141.48;100.00;69781.59;5235118;28;20033;-84
2022/10/10 02:25:59;;;;;;;12.25;8.98;;;;;;;-141.48;100.00;69781.59;5235739;28;20089;-84
2022/10/10 02:28:44;;;;;;;8.25;7.50;;;;;;;-141.48;100.00;69781.59;5236537;28;20031;-83
2022/10/10 02:31:20;;;;;;;9.35;8.57;;;;;;;-141.48;100.00;69781.59;5245848;22;20071;-81
2022/10/10 02:34:05;;;;;;;9.10;8.25;;;;;;;-141.48;100.00;69781.59;5193340;28;20045;-81
2022/10/10 02:36:37;;;;;;;8.43;7.68;;;;;;;-141.48;100.00;69781.59;5213182;28;20075;-81
2022/10/10 02:39:11;;;;;;;7.38;6.90;;;;;;;-141.48;100.00;69781.59;5213671;28;20057;-80
2022/10/10 02:41:45;;;;;;;8.98;8.35;;;;;;;-141.48;100.00;69781.59;5213958;28;20339;-79
2022/10/10 02:44:18;;;;;;;8.13;7.43;;;;;;;-141.48;100.00;69781.59;5211793;28;20029;-80
2022/10/10 02:46:48;;;;;;;7.13;6.63;;;;;;;-141.48;100.00;69781.59;5194516;28;20017;-79
2022/10/10 02:49:24;;;;;;;9.05;8.45;;;;;;;-141.48;100.00;69781.59;5194375;28;20496;-83
2022/10/10 02:51:55;;;;;;;9.80;9.07;;;;;;;-141.48;100.00;69781.59;5194927;28;20139;-82
2022/10/10 02:54:26;;;;;;;9.93;7.93;;;;;;;-141.48;100.00;69781.59;5212950;28;20030;-81
2022/10/10 02:56:56;;;;;;;9.02;8.13;;;;;;;-141.48;100.00;69781.59;5214580;28;20097;-81
2022/10/10 02:59:27;;;;;;;8.75;8.00;;;;;;;-141.48;100.00;69781.59;5196618;28;20032;-80
2022/10/10 03:01:57;;;;;;;8.27;7.60;;;;;;;-141.48;100.00;69781.59;5213435;28;20060;-81
2022/10/10 03:04:28;;;;;;;9.48;8.68;;;;;;;-141.48;100.00;69781.59;5213229;28;20029;-83
2022/10/10 03:06:58;;;;;;;8.73;8.13;;;;;;;-141.48;100.00;69781.59;5213559;28;20456;-82
2022/10/10 03:09:28;;;;;;;8.90;8.27;;;;;;;-141.48;100.00;69781.59;5195827;28;20030;-81
2022/10/10 03:11:59;;;;;;;7.85;7.38;;;;;;;-141.48;100.00;69781.59;5213971;28;20017;-80
2022/10/10 03:14:29;;;;;;;10.50;9.57;;;;;;;-141.48;100.00;69781.59;5213504;28;20432;-81
2022/10/10 03:17:00;;;;;;;12.38;8.77;;;;;;;-141.48;100.00;69781.59;5214457;28;20032;-78
2022/10/10 03:19:30;;;;;;;8.50;7.68;;;;;;;-141.48;100.00;69781.59;5214238;28;20451;-82
2022/10/10 03:22:01;;;;;;;10.10;9.20;;;;;;;-141.48;100.00;69781.59;5215073;28;20025;-82
2022/10/10 03:24:32;;;;;;;9.18;8.55;;;;;;;-141.48;100.00;69781.59;5213761;28;20053;-82
2022/10/10 03:27:02;;;;;;;11.13;8.88;;;;;;;-141.48;100.00;69781.59;5214558;28;20052;-81
2022/10/10 03:29:36;;;;;;;10.13;9.38;;;;;;;-141.48;100.00;69781.59;5215290;28;20021;-84
2022/10/10 03:32:06;;;;;;;16.38;8.18;;;;;;;-141.48;100.00;69781.59;5199941;28;20036;-80
2022/10/10 03:34:39;;;;;;;8.93;8.32;;;;;;;-141.48;100.00;69781.59;5213530;28;20017;-80
2022/10/10 03:37:10;;;;;;;11.93;10.07;;;;;;;-141.48;100.00;69781.59;5196127;28;20033;-83
2022/10/10 03:39:49;;;;;;;8.73;8.02;;;;;;;-141.48;100.00;69781.59;5195983;28;20044;-81
2022/10/10 03:42:20;;;;;;;9.00;8.33;;;;;;;-141.48;100.00;69781.59;5212663;28;20029;-80
2022/10/10 03:44:50;;;;;;;10.32;9.57;;;;;;;-141.48;100.00;69781.59;5209801;28;20087;-80
2022/10/10 03:47:20;;;;;;;8.45;7.85;;;;;;;-141.48;100.00;69781.59;5210483;28;20040;-80
2022/10/10 03:49:51;;;;;;;9.45;8.50;;;;;;;-141.48;100.00;69781.59;5192188;28;20036;-80
2022/10/10 03:52:21;;;;;;;8.88;8.25;;;;;;;-141.48;100.00;69781.59;5208621;28;20034;-79
2022/10/10 03:54:52;;;;;;;7.25;6.78;;;;;;;-141.48;100.00;69781.59;5207782;28;20114;-80
2022/10/10 03:57:22;;;;;;;8.13;7.60;;;;;;;-141.48;100.00;69781.59;5209444;28;20068;-80
2022/10/10 03:59:53;;;;;;;8.93;8.43;;;;;;;-141.48;100.00;69781.59;5209220;28;20029;-80
2022/10/10 04:02:23;;;;;;;9.50;8.63;;;;;;;-141.48;100.00;69781.59;5208996;28;20352;-81
2022/10/10 04:04:54;;;;;;;8.85;8.25;;;;;;;-141.48;100.00;69781.59;5211986;28;20479;-79
2022/10/10 04:07:24;;;;;;;9.90;8.90;;;;;;;-141.48;100.00;69781.59;5213525;28;20021;-80
2022/10/10 04:09:55;;;;;;;9.60;8.57;;;;;;;-141.48;100.00;69781.59;5212789;28;20026;-79
2022/10/10 04:12:25;;;;;;;10.23;9.27;;;;;;;-141.48;100.00;69781.59;5213394;28;20105;-80
2022/10/10 04:14:55;;;;;;;7.47;7.03;;;;;;;-141.48;100.00;69781.59;5211768;28;20448;-80
2022/10/10 04:17:26;;;;;;;7.88;7.28;;;;;;;-141.48;100.00;69781.59;5213285;28;20108;-80
2022/10/10 04:19:56;;;;;;;7.72;7.22;;;;;;;-141.48;100.00;69781.59;5212612;28;20040;-80
2022/10/10 04:22:27;;;;;;;8.77;8.05;;;;;;;-141.48;100.00;69781.59;5213605;28;20030;-80
2022/10/10 04:24:57;;;;;;;12.50;8.52;;;;;;;-141.48;100.00;69781.59;5212293;28;20029;-80
2022/10/10 04:27:27;;;;;;;9.60;8.48;;;;;;;-141.48;100.00;69781.59;5212407;28;20036;-80
2022/10/10 04:29:58;;;;;;;9.55;8.70;;;;;;;-141.48;100.00;69781.59;5212649;28;20036;-80
2022/10/10 04:32:28;;;;;;;9.63;8.93;;;;;;;-141.48;100.00;69781.59;5195014;28;20443;-80
2022/10/10 04:34:58;;;;;;;9.75;8.75;;;;;;;-141.48;100.00;69781.59;5211176;28;20035;-79
2022/10/10 04:37:29;;;;;;;8.23;7.63;;;;;;;-141.48;100.00;69781.59;5194638;28;20356;-79
2022/10/10 04:40:00;;;;;;;10.23;9.40;;;;;;;-141.48;100.00;69781.59;5211940;28;20489;-80
2022/10/10 04:42:30;;;;;;;8.93;8.10;;;;;;;-141.48;100.00;69781.59;5194191;28;20065;-80
2022/10/10 04:45:00;;;;;;;9.65;8.85;;;;;;;-141.48;100.00;69781.59;5211211;28;20084;-80
2022/10/10 04:47:31;;;;;;;11.65;10.23;;;;;;;-141.48;100.00;69781.59;5212246;28;20040;-80
2022/10/10 04:50:02;;;;;;;9.80;8.95;;;;;;;-141.48;100.00;69781.59;5210486;28;20179;-80
2022/10/10 04:52:32;;;;;;;10.60;9.60;;;;;;;-141.48;100.00;69781.59;5211933;28;20086;-80
2022/10/10 04:55:04;;;;;;;8.18;7.38;;;;;;;-141.48;100.00;69781.59;5210296;28;20021;-80
2022/10/10 04:57:34;;;;;;;11.32;10.48;;;;;;;-141.48;100.00;69781.59;5212215;28;20025;-79
2022/10/10 05:00:08;;;;;;;10.18;9.45;;;;;;;-141.48;100.00;69781.59;5211554;28;20036;-78
2022/10/10 05:02:39;;;;;;;9.05;8.45;;;;;;;-141.48;100.00;69781.59;5213178;28;20095;-81
2022/10/10 05:05:09;;;;;;;8.55;7.90;;;;;;;-141.48;100.00;69781.59;5194564;28;20029;-81
2022/10/10 05:07:40;;;;;;;7.90;7.22;;;;;;;-141.48;100.00;69781.59;5214967;28;20065;-81
2022/10/10 05:10:10;;;;;;;9.35;8.55;;;;;;;-141.48;100.00;69781.59;5213391;28;20030;-79
2022/10/10 05:12:41;;;;;;;8.73;7.93;;;;;;;-141.48;100.00;69781.59;5213564;28;20052;-80
2022/10/10 05:15:11;;;;;;;7.95;7.45;;;;;;;-141.48;100.00;69781.59;5212917;28;20136;-83
2022/10/10 05:17:42;;;;;;;9.70;8.68;;;;;;;-141.48;100.00;69781.59;5213911;28;20026;-80
2022/10/10 05:20:12;;;;;;;9.27;8.68;;;;;;;-141.48;100.00;69781.59;5213930;28;20144;-81
2022/10/10 05:22:43;;;;;;;13.70;9.23;;;;;;;-141.48;100.00;69781.59;5214306;28;20026;-82
2022/10/10 05:25:14;;;;;;;8.35;7.85;;;;;;;-141.48;100.00;69781.59;5213973;28;20133;-81
2022/10/10 05:27:44;;;;;;;12.10;10.07;;;;;;;-141.48;100.00;69781.59;5214638;28;20500;-81
2022/10/10 05:30:15;;;;;;;9.13;8.45;;;;;;;-141.48;100.00;69781.59;5215688;28;20029;-82
2022/10/10 05:32:45;;;;;;;11.80;11.00;;;;;;;-141.48;100.00;69781.59;5194022;28;20025;-81
2022/10/10 05:35:28;;;;;;;11.95;11.05;;;;;;;-141.48;100.00;69781.59;5211293;28;20082;-80
2022/10/10 05:37:58;;;;;;;9.25;8.55;;;;;;;-141.48;100.00;69781.59;5214981;28;20107;-79
2022/10/10 05:40:29;;;;;;;10.65;9.68;;;;;;;-141.48;100.00;69781.59;5213076;28;20013;-82
2022/10/10 05:42:59;;;;;;;31.13;28.92;;;;;;;-141.48;100.00;69781.59;5213886;28;20040;-82
2022/10/10 05:45:30;;;;;;;13.70;11.60;;;;;;;-141.48;100.00;69781.59;5212739;28;20036;-81
2022/10/10 05:48:00;;;;;;;10.68;10.00;;;;;;;-141.48;100.00;69781.59;5213931;28;20040;-82
2022/10/10 05:50:37;;;;;;;10.23;9.35;;;;;;;-141.48;100.00;69781.59;5216522;28;20026;-79
2022/10/10 05:53:07;;;;;;;10.30;9.52;;;;;;;-141.48;100.00;69781.59;5203889;28;20033;-81
2022/10/10 05:55:38;;;;;;;9.60;8.80;;;;;;;-141.48;100.00;69781.59;5207672;28;20104;-80
2022/10/10 05:58:09;;;;;;;7.97;7.47;;;;;;;-141.48;100.00;69781.59;5194637;28;20175;-82
2022/10/10 06:00:41;;;;;;;9.13;8.52;;;;;;;-141.48;100.00;69781.59;5195752;28;20025;-82
2022/10/10 06:03:15;;;;;;;8.35;7.82;;;;;;;-141.48;100.00;69781.59;5213921;28;20037;-82
2022/10/10 06:05:49;;;;;;;8.77;8.18;;;;;;;-141.48;100.00;69781.59;5213868;28;20048;-82
2022/10/10 06:08:19;;;;;;;9.05;8.35;;;;;;;-141.48;100.00;69781.59;5196690;28;20036;-82
2022/10/10 06:10:50;;;;;;;9.88;9.15;;;;;;;-141.48;100.00;69781.59;5196237;28;20021;-85
2022/10/10 06:13:20;;;;;;;10.57;9.65;;;;;;;-141.48;100.00;69781.59;5195974;28;20049;-85
2022/10/10 06:15:51;;;;;;;9.15;8.35;;;;;;;-141.48;100.00;69781.59;5197158;28;20040;-84
2022/10/10 06:18:21;;;;;;;9.15;8.35;;;;;;;-141.48;100.00;69781.59;5217147;28;20041;-83
2022/10/10 06:20:52;;;;;;;8.75;8.05;;;;;;;-141.48;100.00;69781.59;5216622;28;20032;-84
2022/10/10 06:23:22;;;;;;;10.38;8.77;;;;;;;-141.48;100.00;69781.59;5215679;28;20083;-81
2022/10/10 06:25:52;;;;;;;10.40;9.27;;;;;;;-141.48;100.00;69781.59;5198714;28;20037;-83
2022/10/10 06:28:54;;;;;;;9.77;8.93;;;;;;;-141.48;100.00;69781.59;5204161;28;20413;-82
2022/10/10 06:32:07;;;;;;;9.82;9.30;;;;;;;-141.48;100.00;69781.59;5214843;28;20158;-85
2022/10/10 06:34:38;;;;;;;9.43;8.82;;;;;;;-141.48;100.00;69781.59;5174130;28;20414;-84
2022/10/10 06:37:11;;;;;;;10.88;9.77;;;;;;;-141.48;100.00;69781.59;5205393;28;20029;-84
2022/10/10 06:39:41;;;;;;;11.60;10.45;;;;;;;-141.48;100.00;69781.59;5220838;28;20029;-83
2022/10/10 06:42:12;;;;;;;11.90;10.95;;;;;;;-141.48;100.00;69781.59;5221957;28;20052;-84
2022/10/10 06:44:42;;;;;;;12.15;11.25;;;;;;;-141.48;100.00;69781.59;5220242;28;20084;-84
2022/10/10 06:47:12;;;;;;;10.85;9.93;;;;;;;-141.48;100.00;69781.59;5204620;28;20059;-84
2022/10/10 06:49:43;;;;;;;15.00;11.98;;;;;;;-141.48;100.00;69781.59;5221937;28;20029;-84
2022/10/10 06:52:13;;;;;;;10.68;9.75;;;;;;;-141.48;100.00;69781.59;5205058;28;20033;-85
2022/10/10 06:54:44;;;;;;;13.18;11.98;;;;;;;-141.48;100.00;69781.59;5205242;28;20021;-84
2022/10/10 06:57:14;;;;;;;14.85;10.32;;;;;;;-141.48;100.00;69781.59;5223055;28;20021;-86
2022/10/10 06:59:45;;;;;;;12.73;11.70;;;;;;;-141.48;100.00;69781.59;5207261;28;20096;-85
2022/10/10 07:02:15;;;;;;;12.68;11.52;;;;;;;-141.48;100.00;69781.59;5206764;28;20029;-86
2022/10/10 07:04:46;;;;;;;17.58;11.20;;;;;;;-141.48;100.00;69781.59;5220527;28;20102;-85
2022/10/10 07:07:16;;;;;;;10.60;9.45;;;;;;;-141.48;100.00;69781.59;5204222;28;20436;-85
2022/10/10 07:09:46;;;;;;;10.23;9.25;;;;;;;-141.48;100.00;69781.59;5202583;28;20022;-84
2022/10/10 07:12:17;;;;;;;11.10;8.77;;;;;;;-141.48;100.00;69781.59;5202584;28;20120;-85
2022/10/10 07:14:47;;;;;;;10.27;9.38;;;;;;;-141.48;100.00;69781.59;5217338;28;20029;-85
2022/10/10 07:17:18;;;;;;;11.65;9.52;;;;;;;-141.48;100.00;69781.59;5203700;28;20459;-85
2022/10/10 07:19:48;;;;;;;13.07;11.07;;;;;;;-141.48;100.00;69781.59;5203799;28;20037;-86
2022/10/10 07:22:18;;;;;;;11.23;10.20;;;;;;;-141.48;100.00;69781.59;5222066;28;20025;-86
2022/10/10 07:24:49;;;;;;;12.40;9.55;;;;;;;-141.48;100.00;69781.59;5220803;28;20502;-86
2022/10/10 07:27:19;;;;;;;9.70;8.95;;;;;;;-141.48;100.00;69781.59;5222485;28;20047;-86
2022/10/10 07:29:50;;;;;;;13.45;9.05;;;;;;;-141.48;100.00;69781.59;5220649;28;20029;-86
2022/10/10 07:32:21;;;;;;;12.23;10.23;;;;;;;-141.48;100.00;69781.59;5222544;28;20025;-85
2022/10/10 07:34:52;;;;;;;16.70;10.43;;;;;;;-141.48;100.00;69781.59;5204070;28;20167;-85
2022/10/10 07:37:23;;;;;;;10.95;9.90;;;;;;;-141.48;100.00;69781.59;5204786;28;20025;-85
2022/10/10 07:39:54;;;;;;;9.15;8.40;;;;;;;-141.48;100.00;69781.59;5226114;28;20037;-85
2022/10/10 07:42:25;;;;;;;13.90;9.35;;;;;;;-141.48;100.00;69781.59;5209039;28;20051;-85
2022/10/10 07:44:55;;;;;;;8.23;6.75;;;;;;;-141.48;100.00;69781.59;5208708;28;20057;-85
2022/10/10 07:47:25;;;;;;;10.27;8.93;;;;;;;-141.48;100.00;69781.59;5207778;28;20360;-85
2022/10/10 07:49:56;;;;;;;12.25;6.80;;;;;;;-141.48;100.00;69781.59;5219047;28;20118;-84
2022/10/10 07:52:26;;;;;;;9.98;9.13;;;;;;;-141.48;100.00;69781.59;5220431;28;20017;-84
2022/10/10 07:54:57;;;;;;;10.32;7.03;;;;;;;-141.48;100.00;69781.59;5201866;28;20087;-85
2022/10/10 07:57:27;;;;;;;8.32;7.70;;;;;;;-141.48;100.00;69781.59;5201913;28;20024;-83
2022/10/10 07:59:58;;;;;;;8.90;7.22;;;;;;;-141.48;100.00;69781.59;5220480;28;20440;-85
2022/10/10 08:02:28;;;;;;;13.32;8.88;;;;;;;-141.48;100.00;69781.59;5220599;28;20017;-85
2022/10/10 08:04:59;;;;;;;6.20;5.28;;;;;;;-141.48;100.00;69781.59;5202801;28;20040;-85
2022/10/10 08:07:29;;;;;;;7.80;7.03;;;;;;;-141.48;100.00;69781.59;5203995;28;20516;-85
2022/10/10 08:10:01;;;;;;;7.53;5.63;;;;;;;-141.48;100.00;69781.59;5221421;28;20035;-86
2022/10/10 08:12:31;;;;;;;9.00;8.18;;;;;;;-141.48;100.00;69781.59;5203696;28;20021;-86
2022/10/10 08:15:03;;;;;;;7.97;7.35;;;;;;;-141.48;100.00;69781.59;5202885;28;20021;-85
2022/10/10 08:17:33;;;;;;;6.43;5.75;;;;;;;-141.48;100.00;69781.59;5227238;28;20084;-84
2022/10/10 08:20:05;;;;;;;10.32;7.97;;;;;;;-141.48;100.00;69781.59;5224477;28;20087;-84
2022/10/10 08:22:35;;;;;;;7.57;6.85;;;;;;;-141.48;100.00;69781.59;5220686;28;20026;-83
2022/10/10 08:25:06;;;;;;;14.30;7.47;;;;;;;-141.48;100.00;69781.59;5217554;28;20063;-84
2022/10/10 08:27:36;;;;;;;7.03;6.43;;;;;;;-141.48;100.00;69781.59;5200632;28;20051;-83
2022/10/10 08:30:07;;;;;;;8.07;7.38;;;;;;;-141.48;100.00;69781.59;5220374;28;20104;-83
2022/10/10 08:32:38;;;;;;;7.82;7.15;;;;;;;-141.48;100.00;69781.59;5255470;22;20514;-66
2022/10/10 08:35:08;;;;;;;6.03;5.53;;;;;;;-141.48;100.00;69781.59;5231242;28;20036;-66
2022/10/10 08:37:39;;;;;;;6.85;6.28;;;;;;;-141.48;100.00;69781.59;5231419;28;20036;-66
2022/10/10 08:40:18;;;;;;;15.25;6.97;;;;;;;-141.48;100.00;69781.59;5218588;28;20392;-67
2022/10/10 08:42:53;;;;;;;5.65;5.25;;;;;;;-141.48;100.00;69781.59;5211689;28;20029;-66
2022/10/10 08:45:25;;;;;;;8.43;5.93;;;;;;;-141.48;100.00;69781.59;5211314;28;20013;-70
2022/10/10 08:47:58;;;;;;;9.02;6.25;;;;;;;-141.48;100.00;69781.59;5211885;28;20021;-66
2022/10/10 08:50:39;;;;;;;9.55;6.28;;;;;;;-141.48;100.00;69781.59;5209643;28;20025;-66
2022/10/10 08:53:21;;;;;;;9.57;6.15;;;;;;;-141.48;100.00;69781.59;5210359;28;20127;-66
2022/10/10 08:55:54;;;;;;;7.45;5.30;;;;;;;-141.48;100.00;69781.59;5209698;28;20508;-66
2022/10/10 08:58:36;;;;;;;5.90;5.45;;;;;;;-141.48;100.00;69781.59;5206881;28;20028;-66
2022/10/10 09:01:10;;;;;;;5.57;5.13;;;;;;;-141.48;100.00;69781.59;5227895;28;20431;-66
2022/10/10 09:03:45;;;;;;;7.40;5.60;;;;;;;-141.48;100.00;69781.59;5210101;28;20051;-66
2022/10/10 09:06:19;;;;;;;6.60;6.05;;;;;;;-141.48;100.00;69781.59;5210414;28;20025;-66
2022/10/10 09:09:00;;;;;;;11.98;4.93;;;;;;;-141.48;100.00;69781.59;5227301;28;20031;-67
2022/10/10 09:11:52;;;;;;;10.05;6.93;;;;;;;-141.48;100.00;69781.59;5209878;28;20017;-66
2022/10/10 09:14:43;;;;;;;8.02;4.95;;;;;;;-141.48;100.00;69781.59;5209847;28;20060;-66
2022/10/10 09:17:31;;;;;;;5.45;4.85;;;;;;;-141.48;100.00;69781.59;5228565;28;20025;-66
2022/10/10 09:20:31;;;;;;;10.50;5.72;;;;;;;-141.48;100.00;69781.59;5209944;28;20037;-66
2022/10/10 09:23:20;;;;;;;16.05;6.22;;;;;;;-141.48;100.00;69781.59;5204549;28;20094;-66
2022/10/10 09:26:21;;;;;;;3.85;3.65;;;;;;;-141.48;100.00;69781.59;5209833;28;20025;-66
2022/10/10 09:29:02;;;;;;;11.52;4.93;;;;;;;-141.48;100.00;69781.59;5206638;28;20041;-66
2022/10/10 09:31:49;;;;;;;9.30;4.45;;;;;;;-141.48;100.00;69781.59;5209790;28;20025;-66
2022/10/10 09:34:46;;;;;;;7.20;5.05;;;;;;;-141.48;100.00;69781.59;5209372;28;20531;-66
2022/10/10 09:37:22;;;;;;;8.65;5.03;;;;;;;-141.48;100.00;69781.59;5209186;28;20029;-68
2022/10/10 09:39:58;;;;;;;3.92;3.65;;;;;;;-141.48;100.00;69781.59;5208622;28;20025;-66
2022/10/10 09:42:34;;;;;;;12.77;7.55;;;;;;;-141.48;100.00;69781.59;5209566;28;20425;-66
2022/10/10 09:45:21;;;;;;;5.32;4.88;;;;;;;-141.48;100.00;69781.59;5209249;28;20052;-66
2022/10/10 09:47:54;;;;;;;7.72;4.60;;;;;;;-141.48;100.00;69781.59;5209595;28;20392;-66
2022/10/10 09:50:25;;;;;;;8.82;4.70;;;;;;;-141.48;100.00;69781.59;5208797;28;20422;-66
2022/10/10 09:52:57;;;;;;;5.65;5.10;;;;;;;-141.48;100.00;69781.59;5226990;28;20047;-67
2022/10/10 09:55:38;;;;;;;6.53;4.88;;;;;;;-141.48;100.00;69781.59;5226642;28;20052;-66
2022/10/10 09:58:38;;;;;;;7.03;4.60;;;;;;;-141.48;100.00;69781.59;5209076;28;20485;-67
2022/10/10 10:01:13;;;;;;;17.25;6.25;;;;;;;-141.48;100.00;69781.59;5207808;28;20483;-67
2022/10/10 10:04:09;;;;;;;12.80;5.60;;;;;;;-141.48;100.00;69781.59;5209083;28;20032;-67
2022/10/10 10:06:49;;;;;;;6.35;4.03;;;;;;;-141.48;100.00;69781.59;5208962;28;20488;-67
2022/10/10 10:09:22;;;;;;;12.15;5.72;;;;;;;-141.48;100.00;69781.59;5208752;28;20393;-67
2022/10/10 10:11:55;;;;;;;21.67;5.50;;;;;;;-141.48;100.00;69781.59;5208784;28;20035;-66
2022/10/10 10:14:30;;;;;;;9.25;5.55;;;;;;;-141.48;100.00;69781.59;5226584;28;20082;-68
2022/10/10 10:17:12;;;;;;;4.90;4.43;;;;;;;-141.48;100.00;69781.59;5208742;28;20025;-65
2022/10/10 10:19:45;;;;;;;5.50;4.32;;;;;;;-141.48;100.00;69781.59;5209394;28;20484;-68
2022/10/10 10:22:28;;;;;;;4.53;4.07;;;;;;;-141.48;100.00;69781.59;5208973;28;20071;-68
2022/10/10 10:25:28;;;;;;;5.75;5.25;;;;;;;-141.48;100.00;69781.59;5227134;28;20667;-67
2022/10/10 10:28:11;;;;;;;;;;;;;;;-141.48;100.00;69781.59;5209054;28;20039;-67
2022/10/10 10:30:42;;;;;;;5.38;4.78;;;;;;;-141.48;100.00;69781.59;5208196;28;19999;-68
2022/10/10 10:33:24;;;;;;;7.47;5.85;;;;;;;-141.48;100.00;69781.59;5208560;28;20096;-67
2022/10/10 10:36:16;;;;;;;9.30;5.40;;;;;;;-141.48;100.00;69781.59;5208467;28;20025;-67
2022/10/10 10:39:29;;;;;;;5.05;4.53;;;;;;;-141.48;100.00;69781.59;5208459;28;20029;-68
2022/10/10 10:42:13;;;;;;;6.38;5.70;;;;;;;-141.48;100.00;69781.59;5198002;28;20488;-67
2022/10/10 10:44:55;;;;;;;4.80;4.47;;;;;;;-141.48;100.00;69781.59;5208286;28;20032;-67
2022/10/10 10:47:44;;;;;;;5.93;5.43;;;;;;;-141.48;100.00;69781.59;5208417;28;20029;-67
2022/10/10 10:50:39;;;;;;;5.22;4.85;;;;;;;-141.48;100.00;69781.59;5207946;28;20029;-67
2022/10/10 10:53:21;;;;;;;5.10;4.43;;;;;;;-141.48;100.00;69781.59;5208365;28;20024;-67
2022/10/10 10:56:09;;;;;;;4.35;4.03;;;;;;;-141.48;100.00;69781.59;5225983;28;20064;-67
2022/10/10 10:58:58;;;;;;;5.93;3.65;;;;;;;-141.48;100.00;69781.59;5207910;28;20025;-67
2022/10/10 11:01:43;;;;;;;4.05;3.75;;;;;;;-141.48;100.00;69781.59;5207843;28;20037;-67
2022/10/10 11:04:22;;;;;;;6.50;4.97;;;;;;;-141.48;100.00;69781.59;5207607;28;20036;-68
2022/10/10 11:07:15;;;;;;;11.20;4.07;;;;;;;-141.48;100.00;69781.59;5225908;28;20029;-68
2022/10/10 11:10:21;;;;;;;6.68;4.35;;;;;;;-141.48;100.00;69781.59;5207835;28;20035;-69
2022/10/10 11:13:12;;;;;;;6.30;3.55;;;;;;;-141.48;100.00;69781.59;5186247;28;20051;-69
2022/10/10 11:15:52;;;;;;;14.82;5.13;;;;;;;-141.48;100.00;69781.59;5207577;28;20025;-68
2022/10/10 11:18:26;;;;;;;3.90;3.38;;;;;;;-141.48;100.00;69781.59;5241013;28;20052;-70
2022/10/10 11:21:25;;;;;;;3.85;3.65;;;;;;;-141.48;100.00;69781.59;5207338;28;20104;-69
2022/10/10 11:24:10;;;;;;;10.75;4.45;;;;;;;-141.48;100.00;69781.59;5207848;28;20547;-68
2022/10/10 11:26:46;;;;;;;4.85;4.45;;;;;;;-141.48;100.00;69781.59;5207726;28;20028;-69
2022/10/10 11:29:28;;;;;;;7.68;5.95;;;;;;;-141.48;100.00;69781.59;5207563;28;20071;-70
2022/10/10 11:32:05;;;;;;;5.18;3.72;;;;;;;-141.48;100.00;69781.59;5207622;28;20957;-66
2022/10/10 11:34:57;;;;;;;5.45;4.68;;;;;;;-141.48;100.00;69781.59;5206412;28;20033;-69
2022/10/10 11:37:31;;;;;;;8.82;4.43;;;;;;;-141.48;100.00;69781.59;5204328;28;20024;-68
2022/10/10 11:40:05;;;;;;;5.30;3.58;;;;;;;-141.48;100.00;69781.59;5206402;28;20029;-69
2022/10/10 11:42:49;;;;;;;5.47;4.90;;;;;;;-141.48;100.00;69781.59;5207001;28;20013;-69
2022/10/10 11:45:33;;;;;;;7.75;3.10;;;;;;;-141.48;100.00;69781.59;5222107;28;20742;-69